WetterOnline ( http://www.wetteronline.de )

Wetter aktuell Alfeld

Aktuelles Wetter: Alfeld (148m)

6-stündlich | Neueste Meldungen
Ortszeit Temperatur Wetter
Mo, 23.04. 8:00 14.6° C bedeckt
Mo, 23.04. 2:00 14.1° C wolkenlos
So, 22.04. 20:00 16.4° C leichter Regen
So, 22.04. 14:00 22.5° C wolkenlos
So, 22.04. 8:00 8.1° C wolkenlos
So, 22.04. 2:00 9.1° C wolkenlos
Sa, 21.04. 20:00 18.1° C wolkig
Sa, 21.04. 14:00 18.6° C wolkenlos
Ortszeit Temperatur Wetter
Mo, 23.04. 9:30 14.7° C bewölkt
Mo, 23.04. 9:20 14.7° C bewölkt
Mo, 23.04. 9:10 14.6° C wolkig
Mo, 23.04. 9:00 14.8° C wolkig
Mo, 23.04. 8:50 14.8° C wolkig
Mo, 23.04. 8:40 14.6° C wolkig
Mo, 23.04. 8:30 14.6° C bewölkt
Mo, 23.04. 8:00 14.6° C bedeckt
Mo, 23.04. 7:30 13.4° C leichter Regen
Mo, 23.04. 7:00 12.9° C bewölkt
Mo, 23.04. 6:30 12.4° C bewölkt
Ortszeit Relative Feuchte Sichtweite
Mo, 23.04. 8:00 86% 20 km
Mo, 23.04. 2:00 94% 30 km
So, 22.04. 20:00 75% 14 km
So, 22.04. 14:00 56% 13 km
So, 22.04. 8:00 88% 22 km
So, 22.04. 2:00 84% 40 km
Sa, 21.04. 20:00 51% 30 km
Sa, 21.04. 14:00 58% 10 km
Ortszeit Relative Feuchte Sichtweite
Mo, 23.04. 9:30 89% 8 km
Mo, 23.04. 9:20 89% -
Mo, 23.04. 9:10 87% -
Mo, 23.04. 9:00 90% 9 km
Mo, 23.04. 8:50 90% -
Mo, 23.04. 8:40 87% -
Mo, 23.04. 8:30 84% 15 km
Mo, 23.04. 8:00 86% 20 km
Mo, 23.04. 7:30 95% 10 km
Mo, 23.04. 7:00 97% 13 km
Mo, 23.04. 6:30 98% 6 km
Ortszeit Niederschlagsmenge Niederschlagsart
Mo, 23.04. 8:00 9 l/m2 in 12 Std. Regenschauer
Mo, 23.04. 2:00 1 l/m2 in 6 Std. Regen
So, 22.04. 20:00 0.5 l/m2 in 12 Std. Regen
So, 22.04. 14:00 0.0 l/m2 in 6 Std. -
So, 22.04. 8:00 0.0 l/m2 in 12 Std. -
So, 22.04. 2:00 0.0 l/m2 in 6 Std. -
Sa, 21.04. 20:00 0.0 l/m2 in 12 Std. -
Sa, 21.04. 14:00 0.0 l/m2 in 6 Std. -
Ortszeit Niederschlagsmenge Niederschlagsart
Mo, 23.04. 9:30 0.0 l/m2 in 1 Std. -
Mo, 23.04. 9:20 keine Meldung -
Mo, 23.04. 9:10 keine Meldung -
Mo, 23.04. 9:00 0.1 l/m2 in 1 Std. Regen
Mo, 23.04. 8:50 keine Meldung -
Mo, 23.04. 8:40 keine Meldung -
Mo, 23.04. 8:30 0.1 l/m2 in 1 Std. Schneeregen
Mo, 23.04. 8:00 0.1 l/m2 in 1 Std. Regenschauer
Mo, 23.04. 7:30 0.1 l/m2 in 1 Std. -
Mo, 23.04. 7:00 0.1 l/m2 in 1 Std. -
Mo, 23.04. 6:30 0.1 l/m2 in 1 Std. -
Ortszeit Stärke Spitze Richtung
km/h Bft. km/h Grad Sektor
Mo, 23.04. 8:00 7 2 58 190° S
Mo, 23.04. 2:00 6 1 41 190° S
So, 22.04. 20:00 14 3 79 180° S
So, 22.04. 14:00 14 3 29 130° SO
So, 22.04. 8:00 9 2 13 120° SO
So, 22.04. 2:00 0 0 14 - -
Sa, 21.04. 20:00 9 2 24 330° NW
Sa, 21.04. 14:00 11 2 25 340° N
Ortszeit Stärke Spitze Richtung
km/h Bft. km/h Grad Sektor
Mo, 23.04. 9:30 4 1 7 180° S
Mo, 23.04. 9:20 4 1 - 180° S
Mo, 23.04. 9:10 4 1 - 140° SO
Mo, 23.04. 9:00 4 1 22 100° O
Mo, 23.04. 8:50 4 1 - 100° O
Mo, 23.04. 8:40 4 1 - 210° SW
Mo, 23.04. 8:30 7 2 22 160° S
Mo, 23.04. 8:00 7 2 14 190° S
Mo, 23.04. 7:30 7 2 14 130° SO
Mo, 23.04. 7:00 6 1 9 130° SO
Mo, 23.04. 6:30 6 1 9 220° SW
Ortszeit Untergrenze Bedeckung Gattung
total tief tief mittel hoch
Mo, 23.04. 8:00 2100 m 8/8 8/8 - - -
Mo, 23.04. 2:00 - 0/8 0/8 - - -
So, 22.04. 20:00 1140 m 8/8 8/8 - - -
So, 22.04. 14:00 - 0/8 0/8 - - -
So, 22.04. 8:00 - 0/8 0/8 - - -
So, 22.04. 2:00 - 0/8 0/8 - - -
Sa, 21.04. 20:00 10500 m 7/8 0/8 - - -
Sa, 21.04. 14:00 - 0/8 0/8 - - -
Ortszeit Bedeckungsgrad in Achtel und Wolkenuntergrenze
Mo, 23.04. 9:30 5(540m) 8(3300m) 8(3900m)
Mo, 23.04. 9:20 5(540m) 8(3300m) 8(3900m)
Mo, 23.04. 9:10 2(480m) 7(3300m) 7(4200m)
Mo, 23.04. 9:00 1(450m) 7(3300m) 7(4500m)
Mo, 23.04. 8:50 1(450m) 7(3300m) 7(4500m)
Mo, 23.04. 8:40 4(2400m) 7(3300m) 7(4500m)
Mo, 23.04. 8:30 7(2400m) 7(3300m) 7(4500m)
Mo, 23.04. 8:00 7(2100m) 8(2700m)
Mo, 23.04. 7:30 1(2100m) 7(3600m) 7(4500m)
Mo, 23.04. 7:00 6(3600m) 7(4500m) 7(5400m)
Mo, 23.04. 6:30 2(3000m) 7(3900m)
Ortszeit Luftdruck NN (hPa) Tendenz (hPa in 3 Std.)
Mo, 23.04. 8:00 1012 + 0,3
Mo, 23.04. 2:00 1011 - 0,7
So, 22.04. 20:00 1012 + 1,6
So, 22.04. 14:00 1013 - 2,5
So, 22.04. 8:00 1018 - 1,0
So, 22.04. 2:00 1020 - 0,5
Sa, 21.04. 20:00 1020 - 0,6
Sa, 21.04. 14:00 1022 - 0,4
Ortszeit Luftdruck NN (hPa) Tendenz (hPa in 3 Std.)
Mo, 23.04. 9:30 1013 + 1,3
Mo, 23.04. 9:20 1013 keine Meldung
Mo, 23.04. 9:10 1013 keine Meldung
Mo, 23.04. 9:00 1013 + 1,2
Mo, 23.04. 8:50 1013 keine Meldung
Mo, 23.04. 8:40 1012 keine Meldung
Mo, 23.04. 8:30 1012 + 0,1
Mo, 23.04. 8:00 1012 + 0,3
Mo, 23.04. 7:30 1012 + 1,0
Mo, 23.04. 7:00 1012 + 0,5
Mo, 23.04. 6:30 1012 + 0,3
Ortszeit Schneehöhe (cm)
Mo, 23.04. 8:00 0
Mo, 23.04. 2:00 0
So, 22.04. 20:00 0
So, 22.04. 14:00 0
So, 22.04. 8:00 0
So, 22.04. 2:00 0
Sa, 21.04. 20:00 0
Sa, 21.04. 14:00 0
Ortszeit Schneehöhe (cm)
Mo, 23.04. 9:30 0
Mo, 23.04. 9:20 0
Mo, 23.04. 9:10 0
Mo, 23.04. 9:00 0
Mo, 23.04. 8:50 0
Mo, 23.04. 8:40 0
Mo, 23.04. 8:30 0
Mo, 23.04. 8:00 0
Mo, 23.04. 7:30 0
Mo, 23.04. 7:00 0
Mo, 23.04. 6:30 0
Link zu dieser Seite / Seite empfehlen

Das Wetter in ...